createdAt,value
2018-12-24T00:00:13.113Z,95096.6
2018-12-24T00:01:15.257Z,95104.3
2018-12-24T00:02:17.681Z,95096.8
2018-12-24T00:03:20.129Z,95088.1
2018-12-24T00:04:22.373Z,95077.5
2018-12-24T00:05:24.237Z,95085.9
2018-12-24T00:06:26.683Z,95081.1
2018-12-24T00:07:29.143Z,95078.9
2018-12-24T00:08:31.292Z,95075.8
2018-12-24T00:09:33.461Z,95074.8
2018-12-24T00:10:35.896Z,95079.5
2018-12-24T00:11:38.343Z,95072.1
2018-12-24T00:12:40.816Z,95051.9
2018-12-24T00:13:43.234Z,95071.9
2018-12-24T00:14:45.669Z,95079.7
2018-12-24T00:15:48.114Z,95075.6
2018-12-24T00:16:50.261Z,95076.4
2018-12-24T00:17:52.411Z,95068.3
2018-12-24T00:18:54.844Z,95064
2018-12-24T00:19:56.732Z,95072.1
2018-12-24T00:20:58.638Z,95055.2
2018-12-24T00:22:00.511Z,95060.9
2018-12-24T00:23:02.960Z,95058.7
2018-12-24T00:24:05.399Z,95048.3
2018-12-24T00:25:07.824Z,95047.8
2018-12-24T00:26:09.720Z,95045.1
2018-12-24T00:27:11.911Z,95049.2
2018-12-24T00:28:14.162Z,95048.9
2018-12-24T00:29:16.595Z,95048.5
2018-12-24T00:30:18.739Z,95039
2018-12-24T00:31:21.186Z,95044.8
2018-12-24T00:32:23.346Z,95051.6
2018-12-24T00:33:25.232Z,95050.3
2018-12-24T00:34:27.125Z,95051.8
2018-12-24T00:35:29.549Z,95040.2
2018-12-24T00:36:31.436Z,95044.6
2018-12-24T00:37:33.856Z,95039
2018-12-24T00:38:36.037Z,95042.4
2018-12-24T00:39:38.463Z,95032.6
2018-12-24T00:40:40.885Z,95052
2018-12-24T00:41:43.308Z,95045.7
2018-12-24T00:42:45.738Z,95024.1
2018-12-24T00:43:48.171Z,95025
2018-12-24T00:44:50.600Z,95033.2
2018-12-24T00:45:53.048Z,95022
2018-12-24T00:46:55.233Z,95025.5
2018-12-24T00:47:57.664Z,95035.9
2018-12-24T00:49:00.092Z,95020.6
2018-12-24T00:50:02.245Z,95023.8
2018-12-24T00:51:04.674Z,95025.5
2018-12-24T00:52:07.103Z,95015.5
2018-12-24T00:53:09.260Z,95035.8
2018-12-24T00:54:11.692Z,95026.4
2018-12-24T00:55:14.115Z,95016
2018-12-24T00:56:16.539Z,95027.3
2018-12-24T00:57:18.670Z,95000.8
2018-12-24T00:58:20.835Z,95034.9
2018-12-24T00:59:23.006Z,95017.8
2018-12-24T01:00:25.433Z,95032.3
2018-12-24T01:01:27.053Z,95024.3
2018-12-24T01:02:29.204Z,95007.5
2018-12-24T01:03:31.435Z,95015.4
2018-12-24T01:04:33.871Z,95023.7
2018-12-24T01:05:36.312Z,95008.8
2018-12-24T01:06:38.480Z,95023
2018-12-24T01:07:40.910Z,95021.8
2018-12-24T01:08:43.341Z,95016.8
2018-12-24T01:09:45.532Z,95012.1
2018-12-24T01:10:47.134Z,95022.5
2018-12-24T01:11:48.742Z,95013.8
2018-12-24T01:12:50.888Z,95015.9
2018-12-24T01:13:53.312Z,95014.3
2018-12-24T01:14:55.762Z,95025.3
2018-12-24T01:15:58.194Z,95012.8
2018-12-24T01:17:00.361Z,95013.9
2018-12-24T01:18:02.802Z,95026
2018-12-24T01:19:05.245Z,95007.8
2018-12-24T01:20:07.672Z,95018.4
2018-12-24T01:21:10.110Z,95020.3
2018-12-24T01:22:12.557Z,95005.7
2018-12-24T01:23:14.991Z,94996.6
2018-12-24T01:24:17.138Z,95011.2
2018-12-24T01:25:19.569Z,95006
2018-12-24T01:26:21.720Z,95017.4
2018-12-24T01:27:24.148Z,95008.3
2018-12-24T01:28:26.652Z,94995.8
2018-12-24T01:29:29.081Z,95004.9
2018-12-24T01:30:31.682Z,94994.2
2018-12-24T01:31:33.838Z,94991
2018-12-24T01:32:36.267Z,94996.3
2018-12-24T01:33:38.708Z,94993.1
2018-12-24T01:34:40.898Z,94995.6
2018-12-24T01:35:43.048Z,94995.3
2018-12-24T01:36:45.490Z,95008.6
2018-12-24T01:37:47.926Z,94982.9
2018-12-24T01:38:50.357Z,94992.8
2018-12-24T01:39:52.512Z,94979.1
2018-12-24T01:40:54.952Z,95003.9
2018-12-24T01:41:57.512Z,94994.4
2018-12-24T01:42:59.390Z,94985.8
2018-12-24T01:44:01.816Z,94990.7
2018-12-24T01:45:04.244Z,94995.2
2018-12-24T01:46:06.131Z,94983.6
2018-12-24T01:47:08.298Z,94984.6
2018-12-24T01:48:10.158Z,94978.4
2018-12-24T01:49:12.578Z,94978.5
2018-12-24T01:50:15.032Z,94984.2
2018-12-24T01:51:17.476Z,94982.5
2018-12-24T01:52:19.642Z,94981.8
2018-12-24T01:53:22.070Z,94973.5
2018-12-24T01:54:24.498Z,94977.1
2018-12-24T01:55:26.932Z,94971
2018-12-24T01:56:29.358Z,94973.7
2018-12-24T01:57:31.790Z,94974
2018-12-24T01:58:34.231Z,94988.1
2018-12-24T01:59:36.672Z,94980.6
2018-12-24T02:00:39.103Z,94976.5
2018-12-24T02:01:41.536Z,94971.3
2018-12-24T02:02:43.960Z,94971.5
2018-12-24T02:03:46.394Z,94991.5
2018-12-24T02:04:48.824Z,94973.8
2018-12-24T02:05:51.269Z,94974.8
2018-12-24T02:06:53.694Z,94969.5
2018-12-24T02:07:55.824Z,94956.3
2018-12-24T02:08:57.977Z,94951.5
2018-12-24T02:09:59.872Z,94948.5
2018-12-24T02:11:02.226Z,94942.2
2018-12-24T02:12:04.650Z,94941.6
2018-12-24T02:13:07.084Z,94943.5
2018-12-24T02:14:09.221Z,94928.2
2018-12-24T02:15:11.380Z,94919
2018-12-24T02:16:13.802Z,94899.2
2018-12-24T02:17:15.940Z,94907.6
2018-12-24T02:18:17.845Z,94901.8
2018-12-24T02:19:20.270Z,94912.5
2018-12-24T02:20:22.703Z,94908.3
2018-12-24T02:21:24.870Z,94900.6
2018-12-24T02:22:27.038Z,94908.1
2018-12-24T02:23:29.174Z,94917.6
2018-12-24T02:24:31.598Z,94915.8
2018-12-24T02:25:33.760Z,94910.5
2018-12-24T02:26:36.200Z,94913.8
2018-12-24T02:27:38.631Z,94914.1
2018-12-24T02:28:41.063Z,94909.6
2018-12-24T02:29:43.478Z,94897.1
2018-12-24T02:30:45.644Z,94896.4
2018-12-24T02:31:47.810Z,94905.6
2018-12-24T02:32:49.979Z,94903.7
2018-12-24T02:33:52.445Z,94899.3
2018-12-24T02:34:54.863Z,94888.4
2018-12-24T02:35:57.028Z,94885.3
2018-12-24T02:36:59.465Z,94883.3
2018-12-24T02:38:01.901Z,94897.5
2018-12-24T02:39:04.333Z,94882.1
2018-12-24T02:40:06.493Z,94878.1
2018-12-24T02:41:08.916Z,94884.7
2018-12-24T02:42:11.351Z,94869.7
2018-12-24T02:43:13.771Z,94881.9
2018-12-24T02:44:15.742Z,94880.8
2018-12-24T02:45:17.894Z,94866.1
2018-12-24T02:46:20.050Z,94879.4
2018-12-24T02:47:22.201Z,94869.8
2018-12-24T02:48:24.338Z,94864.5
2018-12-24T02:49:26.490Z,94866
2018-12-24T02:50:28.659Z,94855.8
2018-12-24T02:51:31.072Z,94866.4
2018-12-24T02:52:33.501Z,94848.9
2018-12-24T02:53:35.924Z,94872.2
2018-12-24T02:54:38.372Z,94867
2018-12-24T02:55:39.815Z,94853
2018-12-24T02:56:41.952Z,94861.3
2018-12-24T02:57:43.840Z,94852.8
2018-12-24T02:58:46.009Z,94849.8
2018-12-24T02:59:48.434Z,94847.9
2018-12-24T03:00:50.321Z,94852.9
2018-12-24T03:01:52.486Z,94859.7
2018-12-24T03:02:54.903Z,94864.3
2018-12-24T03:03:57.331Z,94846.8
2018-12-24T03:04:59.494Z,94857.8
2018-12-24T03:06:01.916Z,94843.5
2018-12-24T03:07:04.344Z,94865.1
2018-12-24T03:08:06.780Z,94865.6
2018-12-24T03:09:08.927Z,94861.1
2018-12-24T03:10:11.351Z,94861
2018-12-24T03:11:13.781Z,94863.3
2018-12-24T03:12:15.660Z,94856.2
2018-12-24T03:13:17.806Z,94847.1
2018-12-24T03:14:19.670Z,94857.2
2018-12-24T03:15:22.120Z,94858.1
2018-12-24T03:16:24.552Z,94862
2018-12-24T03:17:26.696Z,94851.3
2018-12-24T03:18:28.862Z,94863.8
2018-12-24T03:19:31.020Z,94859.3
2018-12-24T03:20:33.465Z,94856.1
2018-12-24T03:21:35.915Z,94850
2018-12-24T03:22:38.430Z,94849.8
2018-12-24T03:23:40.341Z,94855.4
2018-12-24T03:24:42.755Z,94850.5
2018-12-24T03:25:44.894Z,94840.1
2018-12-24T03:26:47.320Z,94841.6
2018-12-24T03:27:49.488Z,94856
2018-12-24T03:28:51.918Z,94868.5
2018-12-24T03:29:54.089Z,94868.6
2018-12-24T03:30:56.261Z,94865.5
2018-12-24T03:31:58.692Z,94875.5
2018-12-24T03:33:01.200Z,94873.9
2018-12-24T03:34:03.649Z,94874.2
2018-12-24T03:35:06.086Z,94882.1
2018-12-24T03:36:08.535Z,94877
2018-12-24T03:37:10.679Z,94876.8
2018-12-24T03:38:13.247Z,94875
2018-12-24T03:39:15.671Z,94882.3
2018-12-24T03:40:17.285Z,94893.5
2018-12-24T03:41:19.944Z,94894
2018-12-24T03:42:22.377Z,94914.6
2018-12-24T03:43:24.810Z,94924.2
2018-12-24T03:44:27.249Z,94949.8
2018-12-24T03:45:29.408Z,94964.5
2018-12-24T03:46:31.590Z,94977.8
2018-12-24T03:47:34.020Z,95027.5
2018-12-24T03:48:36.447Z,95067.8
2018-12-24T03:49:38.598Z,95077.5
2018-12-24T03:50:41.030Z,95131
2018-12-24T03:51:42.923Z,95144.7
2018-12-24T03:52:45.346Z,95142.5
2018-12-24T03:53:47.217Z,95144.8
2018-12-24T03:54:49.637Z,95127.7
2018-12-24T03:55:52.061Z,95121.6
2018-12-24T03:56:54.505Z,95122.6
2018-12-24T03:57:56.389Z,95109.7
2018-12-24T03:58:58.813Z,95108.6
2018-12-24T04:00:00.976Z,95107.5
2018-12-24T04:01:03.402Z,95110
2018-12-24T04:02:05.530Z,95102.1
2018-12-24T04:03:07.961Z,95106.8
2018-12-24T04:04:10.391Z,95104.8
2018-12-24T04:05:12.315Z,95108.9
2018-12-24T04:06:14.493Z,95113.6
2018-12-24T04:07:16.661Z,95111.7
2018-12-24T04:08:19.091Z,95112.3
2018-12-24T04:09:20.970Z,95115.8
2018-12-24T04:10:23.121Z,95118.2
2018-12-24T04:11:25.804Z,95122.9
2018-12-24T04:12:27.676Z,95136.6
2018-12-24T04:13:30.101Z,95137.8
2018-12-24T04:14:31.700Z,95144.3
2018-12-24T04:15:34.138Z,95152
2018-12-24T04:16:36.821Z,95153.9
2018-12-24T04:17:38.960Z,95157.4
2018-12-24T04:18:41.131Z,95160
2018-12-24T04:19:43.257Z,95163.4
2018-12-24T04:20:45.678Z,95160.5
2018-12-24T04:21:48.101Z,95165.4
2018-12-24T04:22:50.551Z,95167.3
2018-12-24T04:23:52.730Z,95166.6
2018-12-24T04:24:55.159Z,95169
2018-12-24T04:25:57.598Z,95166.2
2018-12-24T04:27:00.030Z,95177.6
2018-12-24T04:28:02.481Z,95181.9
2018-12-24T04:29:04.724Z,95179.9
2018-12-24T04:30:07.156Z,95189.5
2018-12-24T04:31:09.314Z,95187.6
2018-12-24T04:32:11.484Z,95191.4
2018-12-24T04:33:13.645Z,95193.3
2018-12-24T04:34:15.808Z,95195.3
2018-12-24T04:35:18.321Z,95193.1
2018-12-24T04:36:20.194Z,95196.8
2018-12-24T04:37:21.801Z,95199.3
2018-12-24T04:38:24.244Z,95200.8
2018-12-24T04:39:26.529Z,95209.4
2018-12-24T04:40:28.977Z,95206.1
2018-12-24T04:41:31.417Z,95216.1
2018-12-24T04:42:33.579Z,95217.8
2018-12-24T04:43:35.764Z,95221.5
2018-12-24T04:44:37.643Z,95219.9
2018-12-24T04:45:39.797Z,95224.6
2018-12-24T04:46:42.221Z,95227.6
2018-12-24T04:47:44.384Z,95237.3
2018-12-24T04:48:46.812Z,95240.2
2018-12-24T04:49:49.241Z,95254
2018-12-24T04:50:51.103Z,95263.4
2018-12-24T04:51:53.525Z,95269.1
2018-12-24T04:52:55.944Z,95267.1
2018-12-24T04:53:58.366Z,95280.8
2018-12-24T04:55:00.799Z,95283.7
2018-12-24T04:56:03.235Z,95286.9
2018-12-24T04:57:05.657Z,95293.3
2018-12-24T04:58:07.840Z,95304
2018-12-24T04:59:10.103Z,95300.6
2018-12-24T05:00:12.259Z,95301.2
2018-12-24T05:01:14.761Z,95296.3
2018-12-24T05:02:17.049Z,95310.4
2018-12-24T05:03:19.193Z,95320.9
2018-12-24T05:04:21.074Z,95313.8
2018-12-24T05:05:23.232Z,95323.1
2018-12-24T05:06:25.663Z,95325.4
2018-12-24T05:07:27.819Z,95328
2018-12-24T05:08:29.997Z,95328.3
2018-12-24T05:09:32.511Z,95331.5
2018-12-24T05:10:34.684Z,95337.1
2018-12-24T05:11:36.277Z,95344.5
2018-12-24T05:12:38.702Z,95345.4
2018-12-24T05:13:42.266Z,95348.3
2018-12-24T05:14:44.699Z,95358
2018-12-24T05:15:47.151Z,95348.4
2018-12-24T05:16:49.573Z,95369.8
2018-12-24T05:17:51.999Z,95371.9
2018-12-24T05:18:54.163Z,95380.7
2018-12-24T05:19:56.341Z,95376.2
2018-12-24T05:20:58.337Z,95384.9
2018-12-24T05:22:00.757Z,95386.1
2018-12-24T05:23:03.177Z,95383
2018-12-24T05:24:05.609Z,95391.2
2018-12-24T05:25:08.049Z,95401.1
2018-12-24T05:26:10.217Z,95403.9
2018-12-24T05:27:12.658Z,95400.8
2018-12-24T05:28:15.090Z,95408.5
2018-12-24T05:29:17.533Z,95421.3
2018-12-24T05:30:19.680Z,95426.8
2018-12-24T05:31:21.561Z,95436.2
2018-12-24T05:32:23.722Z,95438.2
2018-12-24T05:33:26.143Z,95451.8
2018-12-24T05:34:28.570Z,95446.9
2018-12-24T05:35:30.709Z,95464
2018-12-24T05:36:32.612Z,95459.9
2018-12-24T05:37:34.789Z,95469.5
2018-12-24T05:38:37.221Z,95467.4
2018-12-24T05:39:39.653Z,95483.7
2018-12-24T05:40:41.799Z,95484.4
2018-12-24T05:41:44.221Z,95495.3
2018-12-24T05:42:46.653Z,95490.7
2018-12-24T05:43:51.031Z,95500.1
2018-12-24T05:44:53.475Z,95506.1
2018-12-24T05:45:55.640Z,95507.9
2018-12-24T05:46:57.520Z,95515.5
2018-12-24T05:47:59.961Z,95521.3
2018-12-24T05:49:02.381Z,95507.8
2018-12-24T05:50:04.823Z,95521.9
2018-12-24T05:51:07.258Z,95521.5
2018-12-24T05:52:09.712Z,95527
2018-12-24T05:53:12.131Z,95525.9
2018-12-24T05:54:14.007Z,95535
2018-12-24T05:55:16.428Z,95543.9
2018-12-24T05:56:18.852Z,95545.4
2018-12-24T05:57:21.012Z,95550
2018-12-24T05:58:23.160Z,95554.8
2018-12-24T05:59:25.588Z,95557.1
2018-12-24T06:00:27.470Z,95566.4
2018-12-24T06:01:29.610Z,95586.7
2018-12-24T06:02:32.042Z,95584
2018-12-24T06:03:34.478Z,95583.4
2018-12-24T06:04:36.638Z,95594.2
2018-12-24T06:05:38.822Z,95598.8
2018-12-24T06:06:41.253Z,95605.7
2018-12-24T06:07:43.679Z,95612.4
2018-12-24T06:08:46.128Z,95623.9
2018-12-24T06:09:48.552Z,95622
2018-12-24T06:10:50.978Z,95636.1
2018-12-24T06:11:53.138Z,95632.4
2018-12-24T06:12:55.566Z,95632.1
2018-12-24T06:13:59.606Z,95640.2
2018-12-24T06:15:02.062Z,95644.6
2018-12-24T06:16:04.484Z,95648.8
2018-12-24T06:17:06.633Z,95653
2018-12-24T06:18:09.066Z,95647.2
2018-12-24T06:19:11.228Z,95658.5
2018-12-24T06:20:13.378Z,95670.1
2018-12-24T06:21:15.810Z,95674
2018-12-24T06:22:17.980Z,95677.4
2018-12-24T06:23:20.418Z,95682.7
2018-12-24T06:24:22.582Z,95689.5
2018-12-24T06:25:25.014Z,95683.4
2018-12-24T06:26:27.150Z,95687.6
2018-12-24T06:27:29.594Z,95691.7
2018-12-24T06:28:32.030Z,95698.3
2018-12-24T06:29:34.462Z,95694.9
2018-12-24T06:30:36.618Z,95702.6
2018-12-24T06:31:39.045Z,95707.1
2018-12-24T06:32:41.472Z,95710.9
2018-12-24T06:33:43.912Z,95721.4
2018-12-24T06:34:46.347Z,95721.7
2018-12-24T06:35:48.216Z,95731.8
2018-12-24T06:36:50.379Z,95737.5
2018-12-24T06:37:52.522Z,95747.9
2018-12-24T06:38:54.942Z,95757.1
2018-12-24T06:39:57.442Z,95760.3
2018-12-24T06:40:59.872Z,95761.5
2018-12-24T06:42:01.770Z,95759.3
2018-12-24T06:43:03.636Z,95762.7
2018-12-24T06:45:11.043Z,95769
2018-12-24T06:46:13.474Z,95772.8
2018-12-24T06:47:15.346Z,95777.5
2018-12-24T06:48:17.485Z,95781.8
2018-12-24T06:49:19.917Z,95800.8
2018-12-24T06:50:23.567Z,95803.3
2018-12-24T06:51:25.729Z,95813.5
2018-12-24T06:52:28.159Z,95808.7
2018-12-24T06:53:30.584Z,95813.2
2018-12-24T06:54:32.453Z,95822.4
2018-12-24T06:55:34.893Z,95832.2
2018-12-24T06:56:37.345Z,95841.5
2018-12-24T06:57:39.863Z,95836.8
2018-12-24T06:58:42.289Z,95841.2
2018-12-24T06:59:44.734Z,95842.6
2018-12-24T07:00:47.163Z,95852.4
2018-12-24T07:01:49.576Z,95856.6
2018-12-24T07:02:52.009Z,95860.6
2018-12-24T07:03:54.461Z,95864.8
2018-12-24T07:04:56.889Z,95863.7
2018-12-24T07:05:59.043Z,95870.8
2018-12-24T07:07:01.476Z,95873.3
2018-12-24T07:08:03.727Z,95876.8
2018-12-24T07:09:05.591Z,95870.9
2018-12-24T07:10:08.010Z,95877.7
2018-12-24T07:11:10.453Z,95885.8
2018-12-24T07:12:12.883Z,95885.2
2018-12-24T07:13:15.039Z,95887.3
2018-12-24T07:14:17.487Z,95888.6
2018-12-24T07:15:19.919Z,95888.6
2018-12-24T07:16:22.351Z,95892
2018-12-24T07:17:24.503Z,95896.9
2018-12-24T07:18:26.951Z,95891.3
2018-12-24T07:19:28.822Z,95891.9
2018-12-24T07:20:31.259Z,95892.9
2018-12-24T07:21:33.437Z,95893.7
2018-12-24T07:22:35.595Z,95902.5
2018-12-24T07:23:38.025Z,95906.6
2018-12-24T07:24:40.466Z,95902.8
2018-12-24T07:25:42.897Z,95904
2018-12-24T07:26:45.331Z,95907.1
2018-12-24T07:27:47.764Z,95918.6
2018-12-24T07:28:49.930Z,95928
2018-12-24T07:29:56.555Z,95934.8
2018-12-24T07:30:58.699Z,95933.1
2018-12-24T07:32:00.674Z,95934.5
2018-12-24T07:33:03.111Z,95938.1
2018-12-24T07:34:05.273Z,95939.4
2018-12-24T07:35:07.149Z,95947.5
2018-12-24T07:36:09.045Z,95956.8
2018-12-24T07:37:11.190Z,95961.9
2018-12-24T07:38:13.621Z,95963.1
2018-12-24T07:39:15.799Z,95968.7
2018-12-24T07:40:18.311Z,95971.5
2018-12-24T07:41:20.733Z,95976
2018-12-24T07:42:22.891Z,95985.3
2018-12-24T07:43:25.054Z,95990.7
2018-12-24T07:44:27.207Z,96002.1
2018-12-24T07:45:29.369Z,96007.7
2018-12-24T07:46:31.554Z,96006.9
2018-12-24T07:47:34.010Z,96002.6
2018-12-24T07:48:36.183Z,96013.4
2018-12-24T07:49:38.626Z,96013.2
2018-12-24T07:50:41.061Z,96021.5
2018-12-24T07:51:42.943Z,96024
2018-12-24T07:52:45.093Z,96020.4
2018-12-24T07:53:47.261Z,96025.9
2018-12-24T07:54:49.411Z,96037.5
2018-12-24T07:55:51.579Z,96036.9
2018-12-24T07:56:53.467Z,96041.3
2018-12-24T07:57:55.900Z,96044.8
2018-12-24T07:58:58.323Z,96051
2018-12-24T08:00:00.654Z,96050.3
2018-12-24T08:01:03.076Z,96058
2018-12-24T08:02:05.500Z,96060.2
2018-12-24T08:03:07.943Z,96066
2018-12-24T08:04:10.372Z,96069
2018-12-24T08:05:12.793Z,96067
2018-12-24T08:06:15.214Z,96070.8
2018-12-24T08:07:17.674Z,96079
2018-12-24T08:08:20.103Z,96079
2018-12-24T08:09:22.273Z,96082.1
2018-12-24T08:10:24.510Z,96085
2018-12-24T08:11:26.683Z,96088.7
2018-12-24T08:12:28.560Z,96092.7
2018-12-24T08:13:31.002Z,96097.3
2018-12-24T08:14:34.612Z,96095.9
2018-12-24T08:15:37.053Z,96097.4
2018-12-24T08:16:39.492Z,96099.7
2018-12-24T08:17:41.923Z,96097.3
2018-12-24T08:18:44.099Z,96101.4
2018-12-24T08:19:46.527Z,96108.3
2018-12-24T08:20:48.780Z,96104.8
2018-12-24T08:21:51.211Z,96106.8
2018-12-24T08:22:53.378Z,96106
2018-12-24T08:23:55.818Z,96109.3
2018-12-24T08:24:58.237Z,96109.7
2018-12-24T08:26:00.493Z,96116.4
2018-12-24T08:27:02.126Z,96119.8
2018-12-24T08:28:04.287Z,96125.8
2018-12-24T08:29:06.174Z,96128.5
2018-12-24T08:30:08.076Z,96129.8
2018-12-24T08:31:10.501Z,96134.3
2018-12-24T08:32:13.080Z,96137.6
2018-12-24T08:33:15.515Z,96137
2018-12-24T08:34:17.687Z,96141.3
2018-12-24T08:35:19.887Z,96138.2
2018-12-24T08:36:22.327Z,96137.2
2018-12-24T08:37:24.202Z,96141
2018-12-24T08:38:26.649Z,96142.8
2018-12-24T08:39:29.099Z,96143.3
2018-12-24T08:40:31.544Z,96143.1
2018-12-24T08:41:33.983Z,96149.7
2018-12-24T08:42:36.412Z,96154
2018-12-24T08:43:38.843Z,96156.2
2018-12-24T08:44:43.435Z,96160
2018-12-24T08:45:45.894Z,96157.6
2018-12-24T08:46:48.310Z,96164.2
2018-12-24T08:47:50.173Z,96163.2
2018-12-24T08:48:52.604Z,96166.1
2018-12-24T08:49:55.066Z,96166.8
2018-12-24T08:50:56.670Z,96168.2
2018-12-24T08:51:58.789Z,96174.5
2018-12-24T08:53:01.226Z,96178.9
2018-12-24T08:54:03.393Z,96178.3
2018-12-24T08:55:05.549Z,96182
2018-12-24T08:56:08.003Z,96185.7
2018-12-24T08:57:10.170Z,96187.5
2018-12-24T08:58:12.601Z,96192.4
2018-12-24T08:59:14.774Z,96196.4
2018-12-24T09:00:17.203Z,96196.3
2018-12-24T09:01:19.631Z,96198.8
2018-12-24T09:02:21.824Z,96212
2018-12-24T09:03:24.255Z,96209.1
2018-12-24T09:04:26.431Z,96218.3
2018-12-24T09:05:28.294Z,96222.4
2018-12-24T09:06:30.483Z,96217.3
2018-12-24T09:07:32.380Z,96223.1
2018-12-24T09:08:34.813Z,96222.2
2018-12-24T09:09:37.237Z,96228.3
2018-12-24T09:10:39.394Z,96222.9
2018-12-24T09:11:41.833Z,96229.8
2018-12-24T09:12:44.267Z,96229.7
2018-12-24T09:13:46.451Z,96235.8
2018-12-24T09:15:53.855Z,96241.2
2018-12-24T09:16:56.001Z,96236
2018-12-24T09:17:58.176Z,96239.9
2018-12-24T09:19:00.603Z,96241
2018-12-24T09:20:03.046Z,96244.5
2018-12-24T09:21:05.488Z,96239.1
2018-12-24T09:22:07.640Z,96248
2018-12-24T09:23:09.881Z,96246.7
2018-12-24T09:24:12.031Z,96245.9
2018-12-24T09:25:14.205Z,96248.4
2018-12-24T09:26:16.364Z,96251
2018-12-24T09:27:18.792Z,96252.1
2018-12-24T09:28:21.218Z,96253.3
2018-12-24T09:29:23.404Z,96254.8
2018-12-24T09:30:25.551Z,96255.1
2018-12-24T09:31:27.706Z,96256.3
2018-12-24T09:32:30.132Z,96258.4
2018-12-24T09:33:32.316Z,96265.6
2018-12-24T09:34:34.744Z,96261.1
2018-12-24T09:35:36.891Z,96269.6
2018-12-24T09:36:39.328Z,96273.9
2018-12-24T09:37:41.754Z,96268.1
2018-12-24T09:38:44.194Z,96272.7
2018-12-24T09:39:46.625Z,96279.1
2018-12-24T09:40:49.042Z,96274.9
2018-12-24T09:41:51.190Z,96275.3
2018-12-24T09:44:01.968Z,96280.9
2018-12-24T09:45:04.400Z,96282.8
2018-12-24T09:46:06.840Z,96289.5
2018-12-24T09:47:08.729Z,96286
2018-12-24T09:48:11.160Z,96284.4
2018-12-24T09:49:13.630Z,96290.5
2018-12-24T09:50:16.045Z,96291.2
2018-12-24T09:51:18.481Z,96296.9
2018-12-24T09:52:20.918Z,96295.9
2018-12-24T09:53:23.082Z,96294.9
2018-12-24T09:54:25.522Z,96294.6
2018-12-24T09:55:27.706Z,96288.6
2018-12-24T09:56:29.597Z,96294.6
2018-12-24T09:57:32.096Z,96289.5
2018-12-24T09:58:34.551Z,96292.8
2018-12-24T09:59:36.740Z,96294.7
2018-12-24T10:00:39.274Z,96295.4
2018-12-24T10:01:41.694Z,96288.3
2018-12-24T10:02:43.575Z,96293.1
2018-12-24T10:03:45.760Z,96292.2
2018-12-24T10:04:47.928Z,96291.4
2018-12-24T10:05:50.095Z,96291
2018-12-24T10:06:52.543Z,96291.9
2018-12-24T10:07:54.678Z,96290.5
2018-12-24T10:08:56.874Z,96290.5
2018-12-24T10:09:59.052Z,96291.6
2018-12-24T10:11:00.911Z,96293.9
2018-12-24T10:12:03.442Z,96295.6
2018-12-24T10:13:05.615Z,96297.2
2018-12-24T10:14:07.498Z,96300.3
2018-12-24T10:15:09.932Z,96305.2
2018-12-24T10:16:12.359Z,96310.1
2018-12-24T10:17:14.798Z,96311
2018-12-24T10:18:16.929Z,96311
2018-12-24T10:19:19.070Z,96311.8
2018-12-24T10:20:21.520Z,96314.6
2018-12-24T10:21:23.950Z,96310.3
2018-12-24T10:22:26.108Z,96313.6
2018-12-24T10:23:28.008Z,96310.4
2018-12-24T10:24:30.181Z,96308
2018-12-24T10:25:32.614Z,96306
2018-12-24T10:26:35.062Z,96305.1
2018-12-24T10:27:37.207Z,96304.5
2018-12-24T10:28:39.645Z,96308.9
2018-12-24T10:29:41.821Z,96317.6
2018-12-24T10:30:43.986Z,96316.9
2018-12-24T10:31:46.415Z,96315.5
2018-12-24T10:32:48.870Z,96319.7
2018-12-24T10:33:51.310Z,96321.1
2018-12-24T10:34:53.743Z,96316.7
2018-12-24T10:35:56.073Z,96325.6
2018-12-24T10:36:58.524Z,96323.8
2018-12-24T10:38:00.699Z,96322.7
2018-12-24T10:39:03.136Z,96328.6
2018-12-24T10:40:05.296Z,96326.3
2018-12-24T10:41:07.461Z,96329.5
2018-12-24T10:42:09.890Z,96324.8
2018-12-24T10:43:12.337Z,96329.5
2018-12-24T10:44:14.851Z,96330.2
2018-12-24T10:45:18.409Z,96328.7
2018-12-24T10:46:20.573Z,96332.3
2018-12-24T10:47:22.730Z,96329.8
2018-12-24T10:48:25.159Z,96328.4
2018-12-24T10:49:27.575Z,96328.6
2018-12-24T10:50:29.728Z,96324.7
2018-12-24T10:51:31.903Z,96323.7
2018-12-24T10:52:34.349Z,96326
2018-12-24T10:53:36.813Z,96329.5
2018-12-24T10:54:38.704Z,96328.9
2018-12-24T10:55:41.151Z,96329.9
2018-12-24T10:56:43.334Z,96328
2018-12-24T10:57:44.966Z,96329
2018-12-24T10:58:47.396Z,96328.5
2018-12-24T10:59:49.848Z,96330.8
2018-12-24T11:00:52.014Z,96328.7
2018-12-24T11:01:54.186Z,96327.8
2018-12-24T11:02:56.623Z,96330.1
2018-12-24T11:03:59.063Z,96327.9
2018-12-24T11:05:01.563Z,96335.6
2018-12-24T11:06:03.996Z,96332.5
2018-12-24T11:07:06.418Z,96329.5
2018-12-24T11:08:08.845Z,96329.6
2018-12-24T11:09:11.022Z,96337
2018-12-24T11:10:12.920Z,96333
2018-12-24T11:11:15.470Z,96334.1
2018-12-24T11:12:17.914Z,96336.2
2018-12-24T11:13:20.341Z,96338.8
2018-12-24T11:14:22.875Z,96337.5
2018-12-24T11:15:26.774Z,96337
2018-12-24T11:16:29.231Z,96339.6
2018-12-24T11:17:31.665Z,96341.7
2018-12-24T11:18:33.802Z,96343
2018-12-24T11:19:36.272Z,96341.9
2018-12-24T11:20:38.710Z,96342
2018-12-24T11:21:40.903Z,96342.2
2018-12-24T11:22:43.334Z,96343.4
2018-12-24T11:23:45.771Z,96339.8
2018-12-24T11:24:47.953Z,96340.7
2018-12-24T11:25:50.381Z,96340.1
2018-12-24T11:26:52.806Z,96336.6
2018-12-24T11:27:55.240Z,96333.5
2018-12-24T11:28:57.683Z,96336.4
2018-12-24T11:29:59.881Z,96334.9
2018-12-24T11:31:02.320Z,96339.2
2018-12-24T11:32:04.497Z,96341.6
2018-12-24T11:33:06.930Z,96345.1
2018-12-24T11:34:09.353Z,96345.8
2018-12-24T11:35:11.491Z,96346.2
2018-12-24T11:36:13.923Z,96346.6
2018-12-24T11:37:16.098Z,96348
2018-12-24T11:38:18.093Z,96346.2
2018-12-24T11:39:20.262Z,96350
2018-12-24T11:40:22.705Z,96349.7
2018-12-24T11:41:24.834Z,96347.2
2018-12-24T11:42:27.614Z,96349.3
2018-12-24T11:43:30.044Z,96348.3
2018-12-24T11:44:32.203Z,96351.3
2018-12-24T11:45:37.084Z,96351
2018-12-24T11:46:39.225Z,96351.6
2018-12-24T11:47:41.397Z,96354.3
2018-12-24T11:48:43.283Z,96356.3
2018-12-24T11:49:45.450Z,96354.4
2018-12-24T11:50:47.877Z,96353.3
2018-12-24T11:51:50.337Z,96357.1
2018-12-24T11:52:52.776Z,96351.8
2018-12-24T11:53:54.943Z,96353.3
2018-12-24T11:54:57.386Z,96351.6
2018-12-24T11:55:59.841Z,96351.6
2018-12-24T11:57:02.264Z,96347.7
2018-12-24T11:58:04.433Z,96351.9
2018-12-24T11:59:06.603Z,96347.2
2018-12-24T12:00:08.770Z,96344
2018-12-24T12:01:10.932Z,96346.6
2018-12-24T12:02:13.371Z,96341.5
2018-12-24T12:03:15.268Z,96340.8
2018-12-24T12:04:17.441Z,96337.1
2018-12-24T12:05:19.905Z,96345.9
2018-12-24T12:06:22.049Z,96342.5
2018-12-24T12:07:24.221Z,96345.3
2018-12-24T12:08:26.654Z,96345.9
2018-12-24T12:09:28.793Z,96343.7
2018-12-24T12:10:31.433Z,96351.2
2018-12-24T12:11:33.659Z,96349.7
2018-12-24T12:12:36.092Z,96349.1
2018-12-24T12:13:38.518Z,96353.6
2018-12-24T12:14:40.953Z,96355
2018-12-24T12:15:44.153Z,96357.2
2018-12-24T12:16:45.805Z,96358.8
2018-12-24T12:17:47.942Z,96356.7
2018-12-24T12:18:49.843Z,96356.4
2018-12-24T12:19:51.747Z,96357.6
2018-12-24T12:20:54.363Z,96361.5
2018-12-24T12:21:56.524Z,96360.6
2018-12-24T12:22:58.687Z,96358.4
2018-12-24T12:24:01.103Z,96364.7
2018-12-24T12:25:03.533Z,96357
2018-12-24T12:26:05.967Z,96359.7
2018-12-24T12:27:08.153Z,96358.3
2018-12-24T12:28:10.038Z,96360.9
2018-12-24T12:29:12.478Z,96364.8
2018-12-24T12:30:14.926Z,96364
2018-12-24T12:31:17.084Z,96362.5
2018-12-24T12:32:19.519Z,96366.4
2018-12-24T12:33:21.965Z,96369.5
2018-12-24T12:34:25.022Z,96374.7
2018-12-24T12:35:27.445Z,96374.1
2018-12-24T12:36:29.896Z,96377.2
2018-12-24T12:37:32.335Z,96372.4
2018-12-24T12:38:34.707Z,96379.1
2018-12-24T12:39:37.129Z,96375.3
2018-12-24T12:40:39.561Z,96380.7
2018-12-24T12:41:42.836Z,96384.4
2018-12-24T12:42:46.007Z,96386.3